McCoole, Maryland
Current Conditions -  °F | °C
As of 8:31 PM on Thursday 18 Dec 2014 (Local Time) from KCBE Reporting Station
Broken Clouds Broken Clouds  
Wind Chill: 27°   Ceiling: 2600
Heat Index: 32°   Visibility: 10mi
Dew Point: 23°   Wind: 5mph
Humidity: 69%   Direction: 290°WNW
Pressure: 30.17"   Gusts: NA
Location:  39.4853°N, 79.0116°W
Report Text: KCBE 190131Z AUTO 29004KT 10SM BKN026 00/M05 A3017 RMK AO1
Loading
Personal Weather Stations






























Interactive Weather Map New forecast layout! Learn more

10-Day Weather Forecast

Advertisements
Track Severe Weather on mobile